sensor_id;sensor_type;location;lat;lon;timestamp;P1;durP1;ratioP1;P2;durP2;ratioP2
19358;SDS011;9815;52.334;20.890;2023-04-08T00:02:22;18.30;;;9.00;;
19358;SDS011;9815;52.334;20.890;2023-04-08T00:04:50;16.43;;;9.43;;
19358;SDS011;9815;52.334;20.890;2023-04-08T00:07:18;14.93;;;9.17;;
19358;SDS011;9815;52.334;20.890;2023-04-08T00:09:46;17.33;;;10.03;;
19358;SDS011;9815;52.334;20.890;2023-04-08T00:12:14;15.60;;;9.53;;
19358;SDS011;9815;52.334;20.890;2023-04-08T00:14:44;15.87;;;9.57;;
19358;SDS011;9815;52.334;20.890;2023-04-08T00:17:11;12.80;;;9.00;;
19358;SDS011;9815;52.334;20.890;2023-04-08T00:19:39;13.23;;;9.10;;
19358;SDS011;9815;52.334;20.890;2023-04-08T00:22:07;15.23;;;9.17;;
19358;SDS011;9815;52.334;20.890;2023-04-08T00:24:35;15.33;;;9.30;;
19358;SDS011;9815;52.334;20.890;2023-04-08T00:27:05;14.00;;;9.23;;
19358;SDS011;9815;52.334;20.890;2023-04-08T00:29:33;12.53;;;8.40;;
19358;SDS011;9815;52.334;20.890;2023-04-08T00:32:03;17.10;;;10.10;;
19358;SDS011;9815;52.334;20.890;2023-04-08T00:34:31;13.80;;;9.00;;
19358;SDS011;9815;52.334;20.890;2023-04-08T00:36:59;14.10;;;9.17;;
19358;SDS011;9815;52.334;20.890;2023-04-08T00:39:27;16.83;;;9.57;;
19358;SDS011;9815;52.334;20.890;2023-04-08T00:41:55;14.50;;;8.90;;
19358;SDS011;9815;52.334;20.890;2023-04-08T00:44:23;13.83;;;8.67;;
19358;SDS011;9815;52.334;20.890;2023-04-08T00:46:51;17.13;;;9.50;;
19358;SDS011;9815;52.334;20.890;2023-04-08T00:49:20;15.47;;;9.60;;
19358;SDS011;9815;52.334;20.890;2023-04-08T00:51:48;14.13;;;9.50;;
19358;SDS011;9815;52.334;20.890;2023-04-08T00:54:17;14.83;;;9.90;;
19358;SDS011;9815;52.334;20.890;2023-04-08T00:56:45;15.47;;;9.83;;
19358;SDS011;9815;52.334;20.890;2023-04-08T00:59:16;15.77;;;9.80;;
19358;SDS011;9815;52.334;20.890;2023-04-08T01:01:46;14.93;;;9.47;;
19358;SDS011;9815;52.334;20.890;2023-04-08T01:04:30;14.47;;;9.17;;
19358;SDS011;9815;52.334;20.890;2023-04-08T01:07:12;16.80;;;9.63;;
19358;SDS011;9815;52.334;20.890;2023-04-08T01:09:44;15.27;;;8.80;;
19358;SDS011;9815;52.334;20.890;2023-04-08T01:12:16;13.00;;;8.47;;
19358;SDS011;9815;52.334;20.890;2023-04-08T01:14:55;12.87;;;8.60;;
19358;SDS011;9815;52.334;20.890;2023-04-08T01:17:27;14.00;;;8.87;;
19358;SDS011;9815;52.334;20.890;2023-04-08T01:19:59;14.13;;;8.73;;
19358;SDS011;9815;52.334;20.890;2023-04-08T01:22:33;12.50;;;8.47;;
19358;SDS011;9815;52.334;20.890;2023-04-08T01:25:07;14.87;;;9.60;;
19358;SDS011;9815;52.334;20.890;2023-04-08T01:27:43;14.43;;;9.07;;
19358;SDS011;9815;52.334;20.890;2023-04-08T01:30:15;14.60;;;8.70;;
19358;SDS011;9815;52.334;20.890;2023-04-08T01:32:45;15.33;;;9.50;;
19358;SDS011;9815;52.334;20.890;2023-04-08T01:35:14;14.27;;;9.17;;
19358;SDS011;9815;52.334;20.890;2023-04-08T01:37:42;15.57;;;9.63;;
19358;SDS011;9815;52.334;20.890;2023-04-08T01:40:14;16.33;;;9.77;;
19358;SDS011;9815;52.334;20.890;2023-04-08T01:42:44;17.17;;;9.83;;
19358;SDS011;9815;52.334;20.890;2023-04-08T01:45:13;15.83;;;10.00;;
19358;SDS011;9815;52.334;20.890;2023-04-08T01:47:43;16.97;;;10.77;;
19358;SDS011;9815;52.334;20.890;2023-04-08T01:50:13;15.47;;;9.93;;
19358;SDS011;9815;52.334;20.890;2023-04-08T01:52:45;16.57;;;9.53;;
19358;SDS011;9815;52.334;20.890;2023-04-08T01:55:15;20.77;;;10.37;;
19358;SDS011;9815;52.334;20.890;2023-04-08T01:57:46;16.00;;;10.07;;
19358;SDS011;9815;52.334;20.890;2023-04-08T02:00:17;19.37;;;11.00;;
19358;SDS011;9815;52.334;20.890;2023-04-08T02:02:49;18.37;;;10.60;;
19358;SDS011;9815;52.334;20.890;2023-04-08T02:05:19;20.07;;;11.20;;
19358;SDS011;9815;52.334;20.890;2023-04-08T02:07:47;18.67;;;11.03;;
19358;SDS011;9815;52.334;20.890;2023-04-08T02:10:15;18.23;;;10.87;;
19358;SDS011;9815;52.334;20.890;2023-04-08T02:12:43;20.23;;;11.57;;
19358;SDS011;9815;52.334;20.890;2023-04-08T02:15:14;17.13;;;10.43;;
19358;SDS011;9815;52.334;20.890;2023-04-08T02:17:43;18.33;;;10.87;;
19358;SDS011;9815;52.334;20.890;2023-04-08T02:20:15;20.60;;;11.27;;
19358;SDS011;9815;52.334;20.890;2023-04-08T02:22:46;17.43;;;10.73;;
19358;SDS011;9815;52.334;20.890;2023-04-08T02:25:18;19.67;;;11.37;;
19358;SDS011;9815;52.334;20.890;2023-04-08T02:27:51;17.13;;;10.83;;
19358;SDS011;9815;52.334;20.890;2023-04-08T02:30:20;17.73;;;10.97;;
19358;SDS011;9815;52.334;20.890;2023-04-08T02:32:50;22.77;;;12.07;;
19358;SDS011;9815;52.334;20.890;2023-04-08T02:35:20;19.33;;;11.53;;
19358;SDS011;9815;52.334;20.890;2023-04-08T02:37:50;19.07;;;11.57;;
19358;SDS011;9815;52.334;20.890;2023-04-08T02:40:22;20.33;;;12.07;;
19358;SDS011;9815;52.334;20.890;2023-04-08T02:42:52;19.67;;;11.77;;
19358;SDS011;9815;52.334;20.890;2023-04-08T02:45:22;25.90;;;12.40;;
19358;SDS011;9815;52.334;20.890;2023-04-08T02:47:53;21.07;;;11.43;;
19358;SDS011;9815;52.334;20.890;2023-04-08T02:50:22;21.23;;;12.13;;
19358;SDS011;9815;52.334;20.890;2023-04-08T02:52:50;20.57;;;11.80;;
19358;SDS011;9815;52.334;20.890;2023-04-08T02:55:18;20.77;;;12.30;;
19358;SDS011;9815;52.334;20.890;2023-04-08T02:57:46;21.50;;;12.43;;
19358;SDS011;9815;52.334;20.890;2023-04-08T03:00:16;23.40;;;13.30;;
19358;SDS011;9815;52.334;20.890;2023-04-08T03:02:44;22.73;;;13.93;;
19358;SDS011;9815;52.334;20.890;2023-04-08T03:05:12;26.50;;;15.00;;
19358;SDS011;9815;52.334;20.890;2023-04-08T03:07:41;25.43;;;14.50;;
19358;SDS011;9815;52.334;20.890;2023-04-08T03:10:09;23.53;;;13.83;;
19358;SDS011;9815;52.334;20.890;2023-04-08T03:12:38;23.40;;;13.03;;
19358;SDS011;9815;52.334;20.890;2023-04-08T03:15:06;24.63;;;13.93;;
19358;SDS011;9815;52.334;20.890;2023-04-08T03:17:36;22.87;;;12.50;;
19358;SDS011;9815;52.334;20.890;2023-04-08T03:20:05;21.97;;;12.57;;
19358;SDS011;9815;52.334;20.890;2023-04-08T03:22:34;22.67;;;12.47;;
19358;SDS011;9815;52.334;20.890;2023-04-08T03:25:03;21.00;;;11.73;;
19358;SDS011;9815;52.334;20.890;2023-04-08T03:27:31;20.10;;;12.07;;
19358;SDS011;9815;52.334;20.890;2023-04-08T03:29:59;22.23;;;11.90;;
19358;SDS011;9815;52.334;20.890;2023-04-08T03:32:27;20.07;;;11.67;;
19358;SDS011;9815;52.334;20.890;2023-04-08T03:34:57;22.33;;;11.70;;
19358;SDS011;9815;52.334;20.890;2023-04-08T03:37:25;20.87;;;12.03;;
19358;SDS011;9815;52.334;20.890;2023-04-08T03:39:53;21.33;;;11.70;;
19358;SDS011;9815;52.334;20.890;2023-04-08T03:42:21;22.93;;;12.43;;
19358;SDS011;9815;52.334;20.890;2023-04-08T03:44:49;21.63;;;11.33;;
19358;SDS011;9815;52.334;20.890;2023-04-08T03:47:17;23.80;;;12.77;;
19358;SDS011;9815;52.334;20.890;2023-04-08T03:49:45;20.20;;;11.87;;
19358;SDS011;9815;52.334;20.890;2023-04-08T03:52:14;24.50;;;13.20;;
19358;SDS011;9815;52.334;20.890;2023-04-08T03:54:42;22.83;;;12.60;;
19358;SDS011;9815;52.334;20.890;2023-04-08T03:57:10;21.80;;;12.27;;
19358;SDS011;9815;52.334;20.890;2023-04-08T03:59:38;23.47;;;12.63;;
19358;SDS011;9815;52.334;20.890;2023-04-08T04:02:06;20.07;;;11.83;;
19358;SDS011;9815;52.334;20.890;2023-04-08T04:04:35;22.00;;;12.50;;
19358;SDS011;9815;52.334;20.890;2023-04-08T04:07:03;22.73;;;12.53;;
19358;SDS011;9815;52.334;20.890;2023-04-08T04:09:32;29.30;;;15.03;;
19358;SDS011;9815;52.334;20.890;2023-04-08T04:12:00;37.17;;;17.00;;
19358;SDS011;9815;52.334;20.890;2023-04-08T04:14:28;46.53;;;18.80;;
19358;SDS011;9815;52.334;20.890;2023-04-08T04:16:56;40.63;;;17.63;;
19358;SDS011;9815;52.334;20.890;2023-04-08T04:19:24;41.63;;;17.90;;
19358;SDS011;9815;52.334;20.890;2023-04-08T04:21:56;44.97;;;18.97;;
19358;SDS011;9815;52.334;20.890;2023-04-08T04:24:23;68.30;;;24.93;;
19358;SDS011;9815;52.334;20.890;2023-04-08T04:26:53;67.33;;;24.60;;
19358;SDS011;9815;52.334;20.890;2023-04-08T04:29:21;68.97;;;24.00;;
19358;SDS011;9815;52.334;20.890;2023-04-08T04:31:49;53.50;;;22.30;;
19358;SDS011;9815;52.334;20.890;2023-04-08T04:34:17;56.83;;;22.63;;
19358;SDS011;9815;52.334;20.890;2023-04-08T04:36:44;50.67;;;20.27;;
19358;SDS011;9815;52.334;20.890;2023-04-08T04:39:12;53.13;;;20.77;;
19358;SDS011;9815;52.334;20.890;2023-04-08T04:41:40;57.77;;;22.50;;
19358;SDS011;9815;52.334;20.890;2023-04-08T04:44:11;59.33;;;22.43;;
19358;SDS011;9815;52.334;20.890;2023-04-08T04:46:38;62.30;;;21.50;;
19358;SDS011;9815;52.334;20.890;2023-04-08T04:49:06;56.20;;;20.80;;
19358;SDS011;9815;52.334;20.890;2023-04-08T04:51:34;39.87;;;17.00;;
19358;SDS011;9815;52.334;20.890;2023-04-08T04:54:03;36.27;;;16.10;;
19358;SDS011;9815;52.334;20.890;2023-04-08T04:56:31;33.53;;;15.73;;
19358;SDS011;9815;52.334;20.890;2023-04-08T04:58:59;29.00;;;13.73;;
19358;SDS011;9815;52.334;20.890;2023-04-08T05:01:28;29.10;;;14.73;;
19358;SDS011;9815;52.334;20.890;2023-04-08T05:03:56;28.60;;;13.97;;
19358;SDS011;9815;52.334;20.890;2023-04-08T05:06:24;27.83;;;12.63;;
19358;SDS011;9815;52.334;20.890;2023-04-08T05:08:53;29.33;;;13.67;;
19358;SDS011;9815;52.334;20.890;2023-04-08T05:11:21;26.77;;;14.63;;
19358;SDS011;9815;52.334;20.890;2023-04-08T05:13:49;28.23;;;13.97;;
19358;SDS011;9815;52.334;20.890;2023-04-08T05:16:17;26.27;;;14.20;;
19358;SDS011;9815;52.334;20.890;2023-04-08T05:18:46;25.90;;;13.97;;
19358;SDS011;9815;52.334;20.890;2023-04-08T05:21:15;27.40;;;13.80;;
19358;SDS011;9815;52.334;20.890;2023-04-08T05:23:43;26.37;;;14.13;;
19358;SDS011;9815;52.334;20.890;2023-04-08T05:26:11;30.10;;;14.47;;
19358;SDS011;9815;52.334;20.890;2023-04-08T05:28:41;28.47;;;15.07;;
19358;SDS011;9815;52.334;20.890;2023-04-08T05:31:09;26.27;;;14.23;;
19358;SDS011;9815;52.334;20.890;2023-04-08T05:33:37;30.10;;;14.77;;
19358;SDS011;9815;52.334;20.890;2023-04-08T05:36:07;30.10;;;14.33;;
19358;SDS011;9815;52.334;20.890;2023-04-08T05:38:34;25.73;;;13.93;;
19358;SDS011;9815;52.334;20.890;2023-04-08T05:41:02;27.90;;;14.20;;
19358;SDS011;9815;52.334;20.890;2023-04-08T05:43:31;25.97;;;13.87;;
19358;SDS011;9815;52.334;20.890;2023-04-08T05:45:59;24.90;;;13.63;;
19358;SDS011;9815;52.334;20.890;2023-04-08T05:48:27;25.53;;;12.93;;
19358;SDS011;9815;52.334;20.890;2023-04-08T05:50:55;24.13;;;13.33;;
19358;SDS011;9815;52.334;20.890;2023-04-08T05:53:24;24.70;;;12.57;;
19358;SDS011;9815;52.334;20.890;2023-04-08T05:55:52;24.73;;;12.33;;
19358;SDS011;9815;52.334;20.890;2023-04-08T05:58:20;24.40;;;12.57;;
19358;SDS011;9815;52.334;20.890;2023-04-08T06:00:48;25.43;;;12.93;;
19358;SDS011;9815;52.334;20.890;2023-04-08T06:03:16;27.20;;;14.57;;
19358;SDS011;9815;52.334;20.890;2023-04-08T06:05:46;21.60;;;12.63;;
19358;SDS011;9815;52.334;20.890;2023-04-08T06:08:14;23.97;;;12.53;;
19358;SDS011;9815;52.334;20.890;2023-04-08T06:10:48;22.30;;;11.43;;
19358;SDS011;9815;52.334;20.890;2023-04-08T06:13:16;19.17;;;10.80;;
19358;SDS011;9815;52.334;20.890;2023-04-08T06:15:46;21.00;;;10.90;;
19358;SDS011;9815;52.334;20.890;2023-04-08T06:18:15;17.63;;;10.67;;
19358;SDS011;9815;52.334;20.890;2023-04-08T06:20:43;18.00;;;10.40;;
19358;SDS011;9815;52.334;20.890;2023-04-08T06:23:11;19.80;;;11.13;;
19358;SDS011;9815;52.334;20.890;2023-04-08T06:25:41;18.33;;;10.07;;
19358;SDS011;9815;52.334;20.890;2023-04-08T06:28:10;16.73;;;10.00;;
19358;SDS011;9815;52.334;20.890;2023-04-08T06:30:38;17.20;;;9.60;;
19358;SDS011;9815;52.334;20.890;2023-04-08T06:33:06;15.20;;;9.17;;
19358;SDS011;9815;52.334;20.890;2023-04-08T06:35:34;16.47;;;9.57;;
19358;SDS011;9815;52.334;20.890;2023-04-08T06:38:02;16.50;;;9.27;;
19358;SDS011;9815;52.334;20.890;2023-04-08T06:40:30;14.30;;;8.90;;
19358;SDS011;9815;52.334;20.890;2023-04-08T06:42:58;16.37;;;9.50;;
19358;SDS011;9815;52.334;20.890;2023-04-08T06:45:34;18.27;;;9.80;;
19358;SDS011;9815;52.334;20.890;2023-04-08T06:48:02;15.37;;;8.90;;
19358;SDS011;9815;52.334;20.890;2023-04-08T06:50:32;15.17;;;9.90;;
19358;SDS011;9815;52.334;20.890;2023-04-08T06:53:00;18.00;;;10.43;;
19358;SDS011;9815;52.334;20.890;2023-04-08T06:55:28;16.93;;;9.93;;
19358;SDS011;9815;52.334;20.890;2023-04-08T06:57:56;14.57;;;9.17;;
19358;SDS011;9815;52.334;20.890;2023-04-08T07:00:24;16.60;;;9.63;;
19358;SDS011;9815;52.334;20.890;2023-04-08T07:02:54;13.30;;;8.40;;
19358;SDS011;9815;52.334;20.890;2023-04-08T07:05:22;14.40;;;8.37;;
19358;SDS011;9815;52.334;20.890;2023-04-08T07:07:50;14.53;;;8.07;;
19358;SDS011;9815;52.334;20.890;2023-04-08T07:10:18;13.33;;;7.80;;
19358;SDS011;9815;52.334;20.890;2023-04-08T07:12:46;13.67;;;8.93;;
19358;SDS011;9815;52.334;20.890;2023-04-08T07:15:14;14.20;;;8.03;;
19358;SDS011;9815;52.334;20.890;2023-04-08T07:17:42;14.93;;;8.70;;
19358;SDS011;9815;52.334;20.890;2023-04-08T07:20:12;13.63;;;7.87;;
19358;SDS011;9815;52.334;20.890;2023-04-08T07:22:40;13.23;;;7.97;;
19358;SDS011;9815;52.334;20.890;2023-04-08T07:25:08;13.50;;;7.80;;
19358;SDS011;9815;52.334;20.890;2023-04-08T07:27:36;12.93;;;8.10;;
19358;SDS011;9815;52.334;20.890;2023-04-08T07:30:04;12.63;;;7.90;;
19358;SDS011;9815;52.334;20.890;2023-04-08T07:32:33;10.00;;;7.13;;
19358;SDS011;9815;52.334;20.890;2023-04-08T07:35:02;13.93;;;8.00;;
19358;SDS011;9815;52.334;20.890;2023-04-08T07:37:31;11.57;;;7.27;;
19358;SDS011;9815;52.334;20.890;2023-04-08T07:39:59;16.47;;;8.43;;
19358;SDS011;9815;52.334;20.890;2023-04-08T07:42:27;14.83;;;8.67;;
19358;SDS011;9815;52.334;20.890;2023-04-08T07:44:55;14.30;;;7.93;;
19358;SDS011;9815;52.334;20.890;2023-04-08T07:47:23;14.23;;;7.40;;
19358;SDS011;9815;52.334;20.890;2023-04-08T07:49:51;12.53;;;8.17;;
19358;SDS011;9815;52.334;20.890;2023-04-08T07:52:19;14.27;;;8.40;;
19358;SDS011;9815;52.334;20.890;2023-04-08T07:54:49;16.40;;;10.53;;
19358;SDS011;9815;52.334;20.890;2023-04-08T07:57:17;12.37;;;8.57;;
19358;SDS011;9815;52.334;20.890;2023-04-08T07:59:45;13.67;;;8.33;;
19358;SDS011;9815;52.334;20.890;2023-04-08T08:02:13;11.90;;;7.53;;
19358;SDS011;9815;52.334;20.890;2023-04-08T08:04:41;11.30;;;7.70;;
19358;SDS011;9815;52.334;20.890;2023-04-08T08:07:09;14.47;;;7.87;;
19358;SDS011;9815;52.334;20.890;2023-04-08T08:09:37;11.23;;;7.63;;
19358;SDS011;9815;52.334;20.890;2023-04-08T08:12:07;13.07;;;8.33;;
19358;SDS011;9815;52.334;20.890;2023-04-08T08:14:35;11.73;;;7.20;;
19358;SDS011;9815;52.334;20.890;2023-04-08T08:17:03;11.13;;;7.20;;
19358;SDS011;9815;52.334;20.890;2023-04-08T08:19:31;13.57;;;7.77;;
19358;SDS011;9815;52.334;20.890;2023-04-08T08:21:59;11.07;;;7.27;;
19358;SDS011;9815;52.334;20.890;2023-04-08T08:24:27;11.27;;;7.27;;
19358;SDS011;9815;52.334;20.890;2023-04-08T08:26:54;10.53;;;7.27;;
19358;SDS011;9815;52.334;20.890;2023-04-08T08:29:24;11.77;;;6.73;;
19358;SDS011;9815;52.334;20.890;2023-04-08T08:31:52;11.40;;;7.17;;
19358;SDS011;9815;52.334;20.890;2023-04-08T08:34:20;10.80;;;7.00;;
19358;SDS011;9815;52.334;20.890;2023-04-08T08:36:48;13.03;;;7.37;;
19358;SDS011;9815;52.334;20.890;2023-04-08T08:39:16;12.80;;;7.53;;
19358;SDS011;9815;52.334;20.890;2023-04-08T08:41:44;11.10;;;7.10;;
19358;SDS011;9815;52.334;20.890;2023-04-08T08:44:12;10.20;;;6.73;;
19358;SDS011;9815;52.334;20.890;2023-04-08T08:46:43;12.17;;;7.20;;
19358;SDS011;9815;52.334;20.890;2023-04-08T08:49:13;11.37;;;7.27;;
19358;SDS011;9815;52.334;20.890;2023-04-08T08:51:41;12.10;;;7.37;;
19358;SDS011;9815;52.334;20.890;2023-04-08T08:54:13;11.20;;;7.10;;
19358;SDS011;9815;52.334;20.890;2023-04-08T08:56:42;12.00;;;6.83;;
19358;SDS011;9815;52.334;20.890;2023-04-08T08:59:10;10.37;;;6.90;;
19358;SDS011;9815;52.334;20.890;2023-04-08T09:01:38;10.93;;;6.83;;
19358;SDS011;9815;52.334;20.890;2023-04-08T09:04:09;11.43;;;6.63;;
19358;SDS011;9815;52.334;20.890;2023-04-08T09:06:41;10.67;;;6.50;;
19358;SDS011;9815;52.334;20.890;2023-04-08T09:09:10;11.93;;;6.70;;
19358;SDS011;9815;52.334;20.890;2023-04-08T09:11:38;11.33;;;6.90;;
19358;SDS011;9815;52.334;20.890;2023-04-08T09:14:20;11.67;;;7.10;;
19358;SDS011;9815;52.334;20.890;2023-04-08T09:16:48;11.03;;;7.00;;
19358;SDS011;9815;52.334;20.890;2023-04-08T09:19:18;9.43;;;6.17;;
19358;SDS011;9815;52.334;20.890;2023-04-08T09:24:33;9.47;;;7.00;;
19358;SDS011;9815;52.334;20.890;2023-04-08T09:27:02;9.73;;;6.37;;
19358;SDS011;9815;52.334;20.890;2023-04-08T09:29:31;10.87;;;6.87;;
19358;SDS011;9815;52.334;20.890;2023-04-08T09:32:04;10.93;;;6.83;;
19358;SDS011;9815;52.334;20.890;2023-04-08T09:34:33;8.97;;;6.70;;
19358;SDS011;9815;52.334;20.890;2023-04-08T09:37:01;9.60;;;6.70;;
19358;SDS011;9815;52.334;20.890;2023-04-08T09:39:29;8.63;;;6.00;;
19358;SDS011;9815;52.334;20.890;2023-04-08T09:41:57;11.00;;;6.93;;
19358;SDS011;9815;52.334;20.890;2023-04-08T09:44:30;12.30;;;6.97;;
19358;SDS011;9815;52.334;20.890;2023-04-08T09:47:04;9.97;;;6.73;;
19358;SDS011;9815;52.334;20.890;2023-04-08T09:49:43;10.10;;;6.57;;
19358;SDS011;9815;52.334;20.890;2023-04-08T09:52:17;11.27;;;6.80;;
19358;SDS011;9815;52.334;20.890;2023-04-08T09:54:51;9.80;;;6.50;;
19358;SDS011;9815;52.334;20.890;2023-04-08T09:57:23;10.47;;;6.43;;
19358;SDS011;9815;52.334;20.890;2023-04-08T09:59:59;11.23;;;6.80;;
19358;SDS011;9815;52.334;20.890;2023-04-08T10:02:40;10.60;;;6.27;;
19358;SDS011;9815;52.334;20.890;2023-04-08T10:05:17;12.80;;;7.60;;
19358;SDS011;9815;52.334;20.890;2023-04-08T10:07:45;10.30;;;6.60;;
19358;SDS011;9815;52.334;20.890;2023-04-08T10:10:14;9.43;;;6.50;;
19358;SDS011;9815;52.334;20.890;2023-04-08T10:12:43;10.20;;;6.80;;
19358;SDS011;9815;52.334;20.890;2023-04-08T10:15:21;9.37;;;6.30;;
19358;SDS011;9815;52.334;20.890;2023-04-08T10:17:53;10.00;;;6.40;;
19358;SDS011;9815;52.334;20.890;2023-04-08T10:20:42;9.63;;;6.33;;
19358;SDS011;9815;52.334;20.890;2023-04-08T10:23:11;8.80;;;5.97;;
19358;SDS011;9815;52.334;20.890;2023-04-08T10:25:40;9.57;;;6.47;;
19358;SDS011;9815;52.334;20.890;2023-04-08T10:30:59;10.10;;;6.20;;
19358;SDS011;9815;52.334;20.890;2023-04-08T10:33:31;8.50;;;5.77;;
19358;SDS011;9815;52.334;20.890;2023-04-08T10:36:09;8.60;;;6.33;;
19358;SDS011;9815;52.334;20.890;2023-04-08T10:38:37;8.93;;;5.97;;
19358;SDS011;9815;52.334;20.890;2023-04-08T10:41:08;9.80;;;5.70;;
19358;SDS011;9815;52.334;20.890;2023-04-08T10:43:37;9.97;;;6.33;;
19358;SDS011;9815;52.334;20.890;2023-04-08T10:46:05;8.50;;;5.67;;
19358;SDS011;9815;52.334;20.890;2023-04-08T10:48:37;7.60;;;5.97;;
19358;SDS011;9815;52.334;20.890;2023-04-08T10:51:11;9.73;;;6.23;;
19358;SDS011;9815;52.334;20.890;2023-04-08T10:53:39;9.13;;;6.37;;
19358;SDS011;9815;52.334;20.890;2023-04-08T10:56:08;7.63;;;5.63;;
19358;SDS011;9815;52.334;20.890;2023-04-08T10:58:46;9.13;;;6.43;;
19358;SDS011;9815;52.334;20.890;2023-04-08T11:01:15;9.17;;;6.37;;
19358;SDS011;9815;52.334;20.890;2023-04-08T11:03:43;9.13;;;6.07;;
19358;SDS011;9815;52.334;20.890;2023-04-08T11:06:13;9.87;;;6.23;;
19358;SDS011;9815;52.334;20.890;2023-04-08T11:08:41;8.30;;;5.63;;
19358;SDS011;9815;52.334;20.890;2023-04-08T11:11:10;8.17;;;5.87;;
19358;SDS011;9815;52.334;20.890;2023-04-08T11:13:38;9.33;;;5.67;;
19358;SDS011;9815;52.334;20.890;2023-04-08T11:16:18;8.90;;;5.47;;
19358;SDS011;9815;52.334;20.890;2023-04-08T11:18:49;10.37;;;6.17;;
19358;SDS011;9815;52.334;20.890;2023-04-08T11:21:19;9.80;;;6.20;;
19358;SDS011;9815;52.334;20.890;2023-04-08T11:23:48;10.07;;;6.03;;
19358;SDS011;9815;52.334;20.890;2023-04-08T11:26:17;8.97;;;6.03;;
19358;SDS011;9815;52.334;20.890;2023-04-08T11:28:46;8.43;;;6.23;;
19358;SDS011;9815;52.334;20.890;2023-04-08T11:31:16;8.93;;;6.07;;
19358;SDS011;9815;52.334;20.890;2023-04-08T11:33:49;9.97;;;6.03;;
19358;SDS011;9815;52.334;20.890;2023-04-08T11:36:32;8.03;;;5.87;;
19358;SDS011;9815;52.334;20.890;2023-04-08T11:39:12;7.57;;;5.70;;
19358;SDS011;9815;52.334;20.890;2023-04-08T11:41:41;7.53;;;5.20;;
19358;SDS011;9815;52.334;20.890;2023-04-08T11:44:09;7.90;;;5.73;;
19358;SDS011;9815;52.334;20.890;2023-04-08T11:46:37;7.60;;;5.77;;
19358;SDS011;9815;52.334;20.890;2023-04-08T11:49:07;10.50;;;5.90;;
19358;SDS011;9815;52.334;20.890;2023-04-08T11:54:26;8.80;;;5.20;;
19358;SDS011;9815;52.334;20.890;2023-04-08T11:56:54;7.60;;;5.60;;
19358;SDS011;9815;52.334;20.890;2023-04-08T11:59:23;6.70;;;4.93;;
19358;SDS011;9815;52.334;20.890;2023-04-08T12:01:54;7.20;;;4.90;;
19358;SDS011;9815;52.334;20.890;2023-04-08T12:04:22;6.90;;;4.67;;
19358;SDS011;9815;52.334;20.890;2023-04-08T12:06:51;6.47;;;4.70;;
19358;SDS011;9815;52.334;20.890;2023-04-08T12:09:20;6.00;;;4.47;;
19358;SDS011;9815;52.334;20.890;2023-04-08T12:11:48;6.63;;;4.20;;
19358;SDS011;9815;52.334;20.890;2023-04-08T12:14:16;6.47;;;4.80;;
19358;SDS011;9815;52.334;20.890;2023-04-08T12:16:47;6.67;;;4.20;;
19358;SDS011;9815;52.334;20.890;2023-04-08T12:19:15;7.43;;;4.73;;
19358;SDS011;9815;52.334;20.890;2023-04-08T12:21:43;5.03;;;4.00;;
19358;SDS011;9815;52.334;20.890;2023-04-08T12:24:11;6.97;;;4.93;;
19358;SDS011;9815;52.334;20.890;2023-04-08T12:26:41;7.30;;;4.80;;
19358;SDS011;9815;52.334;20.890;2023-04-08T12:29:09;6.23;;;4.37;;
19358;SDS011;9815;52.334;20.890;2023-04-08T12:31:37;5.73;;;4.27;;
19358;SDS011;9815;52.334;20.890;2023-04-08T12:34:06;6.20;;;4.30;;
19358;SDS011;9815;52.334;20.890;2023-04-08T12:36:33;4.80;;;3.47;;
19358;SDS011;9815;52.334;20.890;2023-04-08T12:39:05;7.03;;;4.17;;
19358;SDS011;9815;52.334;20.890;2023-04-08T12:41:33;5.70;;;4.10;;
19358;SDS011;9815;52.334;20.890;2023-04-08T12:44:02;5.40;;;4.07;;
19358;SDS011;9815;52.334;20.890;2023-04-08T12:46:30;7.30;;;5.10;;
19358;SDS011;9815;52.334;20.890;2023-04-08T12:48:59;8.97;;;5.47;;
19358;SDS011;9815;52.334;20.890;2023-04-08T12:51:30;7.20;;;4.87;;
19358;SDS011;9815;52.334;20.890;2023-04-08T12:53:59;8.10;;;4.80;;
19358;SDS011;9815;52.334;20.890;2023-04-08T12:56:28;7.17;;;4.83;;
19358;SDS011;9815;52.334;20.890;2023-04-08T12:58:57;9.97;;;5.73;;
19358;SDS011;9815;52.334;20.890;2023-04-08T13:01:26;8.50;;;5.20;;
19358;SDS011;9815;52.334;20.890;2023-04-08T13:03:56;7.60;;;5.13;;
19358;SDS011;9815;52.334;20.890;2023-04-08T13:06:24;6.27;;;4.57;;
19358;SDS011;9815;52.334;20.890;2023-04-08T13:08:52;9.00;;;4.73;;
19358;SDS011;9815;52.334;20.890;2023-04-08T13:11:20;7.00;;;5.00;;
19358;SDS011;9815;52.334;20.890;2023-04-08T13:13:48;6.57;;;4.67;;
19358;SDS011;9815;52.334;20.890;2023-04-08T13:16:16;7.87;;;4.80;;
19358;SDS011;9815;52.334;20.890;2023-04-08T13:18:46;7.77;;;5.30;;
19358;SDS011;9815;52.334;20.890;2023-04-08T13:21:14;6.93;;;4.83;;
19358;SDS011;9815;52.334;20.890;2023-04-08T13:23:42;7.27;;;4.80;;
19358;SDS011;9815;52.334;20.890;2023-04-08T13:26:12;9.33;;;5.63;;
19358;SDS011;9815;52.334;20.890;2023-04-08T13:28:40;8.80;;;5.77;;
19358;SDS011;9815;52.334;20.890;2023-04-08T13:31:22;17.43;;;8.60;;
19358;SDS011;9815;52.334;20.890;2023-04-08T13:33:52;11.80;;;7.00;;
19358;SDS011;9815;52.334;20.890;2023-04-08T13:36:23;6.67;;;4.67;;
19358;SDS011;9815;52.334;20.890;2023-04-08T13:38:52;6.30;;;4.73;;
19358;SDS011;9815;52.334;20.890;2023-04-08T13:41:20;7.30;;;4.43;;
19358;SDS011;9815;52.334;20.890;2023-04-08T13:43:48;5.77;;;4.43;;
19358;SDS011;9815;52.334;20.890;2023-04-08T13:46:16;5.37;;;4.13;;
19358;SDS011;9815;52.334;20.890;2023-04-08T13:48:44;6.33;;;4.20;;
19358;SDS011;9815;52.334;20.890;2023-04-08T13:51:13;6.80;;;4.67;;
19358;SDS011;9815;52.334;20.890;2023-04-08T13:53:41;5.83;;;4.00;;
19358;SDS011;9815;52.334;20.890;2023-04-08T13:56:09;5.30;;;3.80;;
19358;SDS011;9815;52.334;20.890;2023-04-08T13:58:37;6.03;;;4.33;;
19358;SDS011;9815;52.334;20.890;2023-04-08T14:01:05;6.57;;;4.67;;
19358;SDS011;9815;52.334;20.890;2023-04-08T14:03:33;5.10;;;4.03;;
19358;SDS011;9815;52.334;20.890;2023-04-08T14:06:01;5.40;;;3.93;;
19358;SDS011;9815;52.334;20.890;2023-04-08T14:08:31;6.70;;;4.50;;
19358;SDS011;9815;52.334;20.890;2023-04-08T14:10:59;7.50;;;5.30;;
19358;SDS011;9815;52.334;20.890;2023-04-08T14:13:27;5.70;;;4.23;;
19358;SDS011;9815;52.334;20.890;2023-04-08T14:15:55;7.37;;;4.43;;
19358;SDS011;9815;52.334;20.890;2023-04-08T14:18:23;7.63;;;4.60;;
19358;SDS011;9815;52.334;20.890;2023-04-08T14:20:51;7.53;;;5.00;;
19358;SDS011;9815;52.334;20.890;2023-04-08T14:23:20;7.67;;;5.17;;
19358;SDS011;9815;52.334;20.890;2023-04-08T14:25:49;8.20;;;5.00;;
19358;SDS011;9815;52.334;20.890;2023-04-08T14:28:17;8.63;;;5.73;;
19358;SDS011;9815;52.334;20.890;2023-04-08T14:30:45;10.10;;;5.77;;
19358;SDS011;9815;52.334;20.890;2023-04-08T14:33:14;8.00;;;5.27;;
19358;SDS011;9815;52.334;20.890;2023-04-08T14:35:42;9.97;;;5.20;;
19358;SDS011;9815;52.334;20.890;2023-04-08T14:38:10;7.40;;;5.10;;
19358;SDS011;9815;52.334;20.890;2023-04-08T14:40:38;10.03;;;6.00;;
19358;SDS011;9815;52.334;20.890;2023-04-08T14:43:07;8.70;;;5.87;;
19358;SDS011;9815;52.334;20.890;2023-04-08T14:45:35;7.93;;;5.53;;
19358;SDS011;9815;52.334;20.890;2023-04-08T14:48:03;7.73;;;4.97;;
19358;SDS011;9815;52.334;20.890;2023-04-08T14:50:32;8.20;;;5.20;;
19358;SDS011;9815;52.334;20.890;2023-04-08T14:53:00;8.33;;;5.47;;
19358;SDS011;9815;52.334;20.890;2023-04-08T14:55:28;10.90;;;5.67;;